createdAt,value
2017-07-18T00:00:01.696Z,63.3
2017-07-18T00:01:03.708Z,63.3
2017-07-18T00:02:05.625Z,62.9
2017-07-18T00:03:07.391Z,62.8
2017-07-18T00:04:09.299Z,62.1
2017-07-18T00:05:11.220Z,63.3
2017-07-18T00:06:13.261Z,63.0
2017-07-18T00:07:15.102Z,62.8
2017-07-18T00:08:16.922Z,62.7
2017-07-18T00:09:18.889Z,63.0
2017-07-18T00:10:20.678Z,62.8
2017-07-18T00:11:22.475Z,62.7
2017-07-18T00:12:24.282Z,62.8
2017-07-18T00:13:26.083Z,62.7
2017-07-18T00:14:27.875Z,62.6
2017-07-18T00:15:29.744Z,62.8
2017-07-18T00:16:31.565Z,62.0
2017-07-18T00:17:33.313Z,62.6
2017-07-18T00:18:35.079Z,62.7
2017-07-18T00:19:37.003Z,62.1
2017-07-18T00:20:39.191Z,62.3
2017-07-18T00:21:40.972Z,63.0
2017-07-18T00:22:42.881Z,63.3
2017-07-18T00:23:44.816Z,63.2
2017-07-18T00:24:46.607Z,63.3
2017-07-18T00:25:48.456Z,64.1
2017-07-18T00:26:50.317Z,63.9
2017-07-18T00:27:52.126Z,63.2
2017-07-18T00:28:53.944Z,64.2
2017-07-18T00:29:55.894Z,63.5
2017-07-18T00:30:57.791Z,63.2
2017-07-18T00:31:59.644Z,63.3
2017-07-18T00:33:01.586Z,63.3
2017-07-18T00:34:03.425Z,63.3
2017-07-18T00:35:05.239Z,63.5
2017-07-18T00:36:07.068Z,63.2
2017-07-18T00:37:08.975Z,63.6
2017-07-18T00:38:10.884Z,64.3
2017-07-18T00:39:12.688Z,63.8
2017-07-18T00:40:14.441Z,63.9
2017-07-18T00:41:16.328Z,64.1
2017-07-18T00:42:18.168Z,63.6
2017-07-18T00:43:19.975Z,63.9
2017-07-18T00:44:21.762Z,64.1
2017-07-18T00:45:23.702Z,63.3
2017-07-18T00:46:25.446Z,63.3
2017-07-18T00:47:27.348Z,63.7
2017-07-18T00:48:29.170Z,64.5
2017-07-18T00:49:30.922Z,63.6
2017-07-18T00:50:32.764Z,63.8
2017-07-18T00:51:34.655Z,63.6
2017-07-18T00:52:36.567Z,64.1
2017-07-18T00:53:38.511Z,64.2
2017-07-18T00:54:40.408Z,63.8
2017-07-18T00:55:42.275Z,63.8
2017-07-18T00:56:44.089Z,63.7
2017-07-18T00:57:45.997Z,64.1
2017-07-18T00:58:48.020Z,63.7
2017-07-18T00:59:50.066Z,64.2
2017-07-18T01:00:51.957Z,64.6
2017-07-18T01:01:53.888Z,64.4
2017-07-18T01:02:55.938Z,64.7
2017-07-18T01:03:57.733Z,64.2
2017-07-18T01:04:59.622Z,64.8
2017-07-18T01:06:01.498Z,64.8
2017-07-18T01:07:03.506Z,64.8
2017-07-18T01:08:05.247Z,64.7
2017-07-18T01:09:07.053Z,64.7
2017-07-18T01:10:08.918Z,64.8
2017-07-18T01:11:10.776Z,64.2
2017-07-18T01:12:12.615Z,64.8
2017-07-18T01:13:14.459Z,64.9
2017-07-18T01:14:16.342Z,65.5
2017-07-18T01:15:18.142Z,65.2
2017-07-18T01:16:19.918Z,65.5
2017-07-18T01:17:21.801Z,65.7
2017-07-18T01:18:23.695Z,66.1
2017-07-18T01:19:25.454Z,65.6
2017-07-18T01:20:27.260Z,65.8
2017-07-18T01:21:29.014Z,65.7
2017-07-18T01:22:30.901Z,65.1
2017-07-18T01:23:32.759Z,65.1
2017-07-18T01:24:34.535Z,65.0
2017-07-18T01:25:36.345Z,64.9
2017-07-18T01:26:38.150Z,65.6
2017-07-18T01:27:39.947Z,65.4
2017-07-18T01:28:41.764Z,65.5
2017-07-18T01:29:43.571Z,65.9
2017-07-18T01:30:45.372Z,65.9
2017-07-18T01:31:47.125Z,65.6
2017-07-18T01:32:48.998Z,65.9
2017-07-18T01:33:50.774Z,65.7
2017-07-18T01:34:52.576Z,65.7
2017-07-18T01:35:54.365Z,65.7
2017-07-18T01:36:56.200Z,66.0
2017-07-18T01:37:57.977Z,65.7
2017-07-18T01:38:59.716Z,66.0
2017-07-18T01:40:01.483Z,65.2
2017-07-18T01:41:03.272Z,66.0
2017-07-18T01:42:05.154Z,65.9
2017-07-18T01:43:06.919Z,66.0
2017-07-18T01:44:08.660Z,65.6
2017-07-18T01:45:10.405Z,65.6
2017-07-18T01:46:12.687Z,66.1
2017-07-18T01:47:14.431Z,65.6
2017-07-18T01:48:16.279Z,65.6
2017-07-18T01:49:18.146Z,65.6
2017-07-18T01:50:19.875Z,65.9
2017-07-18T01:51:21.636Z,66.0
2017-07-18T01:52:23.366Z,65.5
2017-07-18T01:53:25.181Z,65.6
2017-07-18T01:54:26.903Z,65.4
2017-07-18T01:55:28.736Z,66.1
2017-07-18T01:56:30.466Z,66.0
2017-07-18T01:57:32.263Z,65.9
2017-07-18T01:58:34.096Z,66.2
2017-07-18T01:59:35.919Z,66.1
2017-07-18T02:00:37.849Z,66.2
2017-07-18T02:01:39.610Z,66.2
2017-07-18T02:02:41.369Z,66.1
2017-07-18T02:03:43.161Z,66.3
2017-07-18T02:04:44.974Z,66.2
2017-07-18T02:05:46.798Z,66.1
2017-07-18T02:06:48.553Z,65.8
2017-07-18T02:07:50.351Z,66.0
2017-07-18T02:08:52.207Z,65.9
2017-07-18T02:09:54.074Z,66.1
2017-07-18T02:10:55.924Z,66.0
2017-07-18T02:11:57.690Z,66.2
2017-07-18T02:12:59.587Z,65.8
2017-07-18T02:14:01.407Z,65.6
2017-07-18T02:15:03.315Z,66.0
2017-07-18T02:16:05.149Z,65.8
2017-07-18T02:17:06.992Z,65.8
2017-07-18T02:18:08.742Z,65.7
2017-07-18T02:19:10.592Z,66.0
2017-07-18T02:20:12.354Z,65.8
2017-07-18T02:21:14.146Z,65.4
2017-07-18T02:22:15.994Z,65.8
2017-07-18T02:23:17.751Z,65.6
2017-07-18T02:24:19.578Z,66.0
2017-07-18T02:25:21.384Z,66.1
2017-07-18T02:26:23.272Z,65.9
2017-07-18T02:27:25.116Z,66.0
2017-07-18T02:28:26.848Z,66.1
2017-07-18T02:29:28.634Z,65.6
2017-07-18T02:30:30.483Z,65.9
2017-07-18T02:31:32.392Z,66.2
2017-07-18T02:32:34.201Z,65.9
2017-07-18T02:33:36.040Z,66.1
2017-07-18T02:34:37.850Z,66.2
2017-07-18T02:35:39.718Z,66.2
2017-07-18T02:36:41.466Z,66.6
2017-07-18T02:37:43.265Z,66.4
2017-07-18T02:38:45.090Z,66.1
2017-07-18T02:39:46.833Z,66.1
2017-07-18T02:40:48.716Z,65.9
2017-07-18T02:41:50.491Z,66.3
2017-07-18T02:42:52.324Z,66.3
2017-07-18T02:43:54.180Z,66.2
2017-07-18T02:44:56.103Z,66.8
2017-07-18T02:45:57.859Z,66.5
2017-07-18T02:46:59.626Z,66.7
2017-07-18T02:48:01.517Z,66.7
2017-07-18T02:49:03.329Z,66.9
2017-07-18T02:50:05.125Z,66.8
2017-07-18T02:51:06.905Z,66.6
2017-07-18T02:52:08.657Z,66.7
2017-07-18T02:53:10.518Z,67.0
2017-07-18T02:54:12.376Z,67.0
2017-07-18T02:55:14.623Z,66.9
2017-07-18T02:56:16.463Z,66.9
2017-07-18T02:57:18.258Z,67.0
2017-07-18T02:58:20.044Z,67.0
2017-07-18T02:59:22.485Z,66.9
2017-07-18T03:00:24.263Z,67.0
2017-07-18T03:01:26.074Z,66.6
2017-07-18T03:02:27.872Z,66.6
2017-07-18T03:03:29.646Z,66.7
2017-07-18T03:04:31.428Z,66.9
2017-07-18T03:05:33.278Z,66.7
2017-07-18T03:06:35.074Z,66.8
2017-07-18T03:07:36.934Z,66.8
2017-07-18T03:08:38.756Z,66.9
2017-07-18T03:09:40.525Z,67.2
2017-07-18T03:10:42.286Z,67.4
2017-07-18T03:11:44.066Z,66.9
2017-07-18T03:12:45.844Z,66.6
2017-07-18T03:13:47.626Z,66.6
2017-07-18T03:14:49.408Z,66.9
2017-07-18T03:15:51.182Z,66.8
2017-07-18T03:16:54.524Z,66.9
2017-07-18T03:17:58.500Z,67.3
2017-07-18T03:19:00.271Z,67.0
2017-07-18T03:20:02.047Z,67.6
2017-07-18T03:21:03.841Z,66.8
2017-07-18T03:22:05.656Z,66.9
2017-07-18T03:23:07.475Z,66.9
2017-07-18T03:24:09.247Z,67.0
2017-07-18T03:25:11.048Z,67.2
2017-07-18T03:26:13.009Z,67.3
2017-07-18T03:27:14.783Z,66.7
2017-07-18T03:28:16.602Z,67.4
2017-07-18T03:29:18.444Z,67.2
2017-07-18T03:30:20.224Z,67.2
2017-07-18T03:31:22.209Z,67.0
2017-07-18T03:32:24.020Z,66.6
2017-07-18T03:33:25.849Z,66.4
2017-07-18T03:34:27.675Z,67.3
2017-07-18T03:35:29.733Z,67.2
2017-07-18T03:36:31.777Z,67.4
2017-07-18T03:37:33.636Z,67.0
2017-07-18T03:38:35.446Z,67.0
2017-07-18T03:40:47.105Z,67.6
2017-07-18T03:41:48.691Z,67.8
2017-07-18T03:42:50.310Z,68.1
2017-07-18T03:43:51.931Z,66.9
2017-07-18T03:44:53.540Z,67.4
2017-07-18T03:45:55.140Z,66.8
2017-07-18T03:46:56.991Z,66.7
2017-07-18T03:47:58.814Z,66.7
2017-07-18T03:49:00.631Z,66.4
2017-07-18T03:50:02.469Z,66.7
2017-07-18T03:51:04.080Z,66.5
2017-07-18T03:52:05.694Z,66.6
2017-07-18T03:53:07.291Z,67.3
2017-07-18T03:54:10.919Z,67.1
2017-07-18T03:55:12.545Z,66.5
2017-07-18T03:56:14.383Z,66.9
2017-07-18T03:57:15.992Z,66.9
2017-07-18T03:58:17.588Z,66.8
2017-07-18T03:59:19.433Z,66.8
2017-07-18T04:00:21.058Z,66.6
2017-07-18T04:01:22.995Z,66.5
2017-07-18T04:02:24.821Z,66.8
2017-07-18T04:03:26.494Z,66.8
2017-07-18T04:04:28.360Z,66.5
2017-07-18T04:05:30.219Z,66.9
2017-07-18T04:06:31.821Z,66.3
2017-07-18T04:07:33.446Z,66.1
2017-07-18T04:08:35.057Z,66.3
2017-07-18T04:09:36.669Z,66.1
2017-07-18T04:10:38.283Z,66.0
2017-07-18T04:11:39.892Z,66.3
2017-07-18T04:12:41.516Z,65.7
2017-07-18T04:13:43.132Z,66.2
2017-07-18T04:14:44.747Z,66.1
2017-07-18T04:15:46.389Z,65.8
2017-07-18T04:16:49.526Z,65.6
2017-07-18T04:17:51.126Z,65.1
2017-07-18T04:18:52.746Z,65.2
2017-07-18T04:19:54.597Z,65.1
2017-07-18T04:20:56.210Z,65.3
2017-07-18T04:21:57.993Z,65.8
2017-07-18T04:22:59.599Z,66.0
2017-07-18T04:24:01.262Z,65.7
2017-07-18T04:25:02.873Z,65.4
2017-07-18T04:26:04.500Z,65.3
2017-07-18T04:27:06.123Z,65.2
2017-07-18T04:28:07.753Z,65.6
2017-07-18T04:29:09.347Z,65.5
2017-07-18T04:30:10.959Z,65.4
2017-07-18T04:31:12.602Z,65.4
2017-07-18T04:32:14.216Z,65.6
2017-07-18T04:33:15.831Z,65.7
2017-07-18T04:34:17.442Z,65.1
2017-07-18T04:35:19.055Z,65.2
2017-07-18T04:36:20.673Z,65.8
2017-07-18T04:37:22.293Z,65.0
2017-07-18T04:38:26.166Z,65.2
2017-07-18T04:39:28.048Z,64.7
2017-07-18T04:40:29.650Z,64.7
2017-07-18T04:41:31.276Z,64.5
2017-07-18T04:42:33.749Z,64.6
2017-07-18T04:43:35.756Z,64.8
2017-07-18T04:44:38.319Z,64.8
2017-07-18T04:45:40.886Z,64.5
2017-07-18T04:46:43.415Z,64.7
2017-07-18T04:47:45.760Z,64.6
2017-07-18T04:48:47.353Z,64.7
2017-07-18T04:49:48.991Z,64.8
2017-07-18T04:50:50.611Z,65.2
2017-07-18T04:51:52.450Z,64.8
2017-07-18T04:52:54.075Z,64.8
2017-07-18T04:53:55.678Z,64.8
2017-07-18T04:54:57.296Z,64.9
2017-07-18T04:55:58.908Z,64.7
2017-07-18T04:57:00.544Z,65.0
2017-07-18T04:58:04.062Z,64.9
2017-07-18T04:59:07.666Z,65.2
2017-07-18T05:00:09.276Z,65.2
2017-07-18T05:01:10.881Z,64.8
2017-07-18T05:02:12.716Z,64.6
2017-07-18T05:03:14.331Z,64.8
2017-07-18T05:04:15.965Z,65.0
2017-07-18T05:05:17.579Z,64.9
2017-07-18T05:06:19.192Z,66.0
2017-07-18T05:07:20.809Z,65.9
2017-07-18T05:08:22.421Z,65.9
2017-07-18T05:09:24.042Z,65.5
2017-07-18T05:10:25.739Z,65.3
2017-07-18T05:11:27.390Z,65.7
2017-07-18T05:12:29.000Z,66.2
2017-07-18T05:13:30.619Z,66.0
2017-07-18T05:14:32.242Z,66.2
2017-07-18T05:15:33.877Z,66.2
2017-07-18T05:16:35.474Z,66.3
2017-07-18T05:17:37.101Z,66.4
2017-07-18T05:18:38.710Z,66.3
2017-07-18T05:19:40.322Z,66.0
2017-07-18T05:20:41.958Z,66.1
2017-07-18T05:21:43.802Z,66.1
2017-07-18T05:22:45.408Z,65.5
2017-07-18T05:23:47.016Z,65.5
2017-07-18T05:24:48.649Z,65.6
2017-07-18T05:25:50.268Z,65.9
2017-07-18T05:26:51.893Z,65.2
2017-07-18T05:27:53.510Z,65.3
2017-07-18T05:28:55.121Z,65.0
2017-07-18T05:29:56.735Z,64.9
2017-07-18T05:30:58.350Z,64.5
2017-07-18T05:32:01.962Z,64.5
2017-07-18T05:33:03.550Z,64.8
2017-07-18T05:34:05.184Z,64.4
2017-07-18T05:35:06.823Z,65.0
2017-07-18T05:36:08.420Z,64.9
2017-07-18T05:37:10.031Z,64.9
2017-07-18T05:38:11.671Z,64.9
2017-07-18T05:39:13.289Z,64.7
2017-07-18T05:40:14.887Z,64.9
2017-07-18T05:41:16.493Z,64.1
2017-07-18T05:42:18.120Z,64.3
2017-07-18T05:43:19.750Z,64.3
2017-07-18T05:44:21.355Z,64.5
2017-07-18T05:45:24.147Z,64.1
2017-07-18T05:46:26.923Z,64.6
2017-07-18T05:47:28.539Z,64.9
2017-07-18T05:48:30.165Z,63.9
2017-07-18T05:49:31.794Z,63.9
2017-07-18T05:50:33.419Z,63.9
2017-07-18T05:51:35.021Z,64.1
2017-07-18T05:52:36.661Z,63.5
2017-07-18T05:53:38.271Z,63.4
2017-07-18T05:54:39.880Z,63.5
2017-07-18T05:55:41.498Z,62.4
2017-07-18T05:56:43.120Z,62.5
2017-07-18T05:57:44.729Z,62.4
2017-07-18T05:58:46.351Z,62.0
2017-07-18T05:59:47.976Z,62.0
2017-07-18T06:00:50.002Z,61.4
2017-07-18T06:01:51.638Z,61.4
2017-07-18T06:02:53.249Z,61.6
2017-07-18T06:03:54.858Z,60.8
2017-07-18T06:04:56.512Z,60.2
2017-07-18T06:05:58.113Z,60.0
2017-07-18T06:06:59.746Z,59.6
2017-07-18T06:08:01.341Z,59.3
2017-07-18T06:09:02.949Z,59.4
2017-07-18T06:10:06.176Z,58.6
2017-07-18T06:11:07.802Z,58.8
2017-07-18T06:12:09.418Z,58.8
2017-07-18T06:13:11.050Z,58.5
2017-07-18T06:14:12.650Z,58.0
2017-07-18T06:15:14.271Z,57.9
2017-07-18T06:16:15.886Z,57.3
2017-07-18T06:17:17.517Z,56.5
2017-07-18T06:18:19.127Z,57.2
2017-07-18T06:19:20.766Z,56.5
2017-07-18T06:20:22.358Z,56.0
2017-07-18T06:21:23.991Z,56.3
2017-07-18T06:22:25.621Z,55.6
2017-07-18T06:23:27.244Z,55.8
2017-07-18T06:24:28.866Z,55.5
2017-07-18T06:25:30.470Z,55.5
2017-07-18T06:26:32.105Z,55.5
2017-07-18T06:27:33.718Z,55.1
2017-07-18T06:28:35.330Z,55.3
2017-07-18T06:29:36.943Z,55.3
2017-07-18T06:30:38.571Z,54.9
2017-07-18T06:31:40.200Z,54.6
2017-07-18T06:32:41.809Z,54.4
2017-07-18T06:33:43.431Z,54.3
2017-07-18T06:34:45.060Z,54.1
2017-07-18T06:35:46.663Z,53.8
2017-07-18T06:36:48.307Z,53.5
2017-07-18T06:37:49.918Z,53.0
2017-07-18T06:38:51.544Z,52.5
2017-07-18T06:39:53.178Z,53.2
2017-07-18T06:40:55.021Z,53.3
2017-07-18T06:41:56.572Z,52.5
2017-07-18T06:42:58.201Z,52.8
2017-07-18T06:43:59.806Z,52.3
2017-07-18T06:45:01.428Z,52.7
2017-07-18T06:46:03.036Z,51.9
2017-07-18T06:47:04.655Z,52.4
2017-07-18T06:48:06.299Z,51.9
2017-07-18T06:49:07.905Z,51.6
2017-07-18T06:50:09.511Z,51.7
2017-07-18T06:51:11.133Z,51.6
2017-07-18T06:52:12.754Z,51.5
2017-07-18T06:53:14.377Z,51.6
2017-07-18T06:54:16.006Z,51.6
2017-07-18T06:55:17.640Z,51.9
2017-07-18T06:56:19.246Z,51.6
2017-07-18T06:57:20.865Z,51.1
2017-07-18T06:58:22.506Z,50.7
2017-07-18T06:59:24.103Z,50.0
2017-07-18T07:00:25.723Z,49.9
2017-07-18T07:01:27.384Z,49.9
2017-07-18T07:02:29.016Z,49.9
2017-07-18T07:03:30.613Z,48.9
2017-07-18T07:04:32.241Z,49.0
2017-07-18T07:05:33.860Z,49.0
2017-07-18T07:06:35.485Z,48.8
2017-07-18T07:07:37.472Z,48.1
2017-07-18T07:08:38.689Z,47.7
2017-07-18T07:09:40.290Z,46.7
2017-07-18T07:10:41.932Z,46.9
2017-07-18T07:11:43.533Z,46.6
2017-07-18T07:12:45.155Z,46.2
2017-07-18T07:13:46.775Z,45.2
2017-07-18T07:14:48.416Z,44.3
2017-07-18T07:15:56.954Z,44.6
2017-07-18T07:16:58.568Z,45.0
2017-07-18T07:18:00.182Z,44.7
2017-07-18T07:19:01.799Z,44.3
2017-07-18T07:20:03.446Z,44.6
2017-07-18T07:21:05.078Z,44.7
2017-07-18T07:22:06.698Z,44.2
2017-07-18T07:23:08.306Z,44.0
2017-07-18T07:24:09.953Z,43.8
2017-07-18T07:25:11.557Z,43.7
2017-07-18T07:26:13.464Z,43.0
2017-07-18T07:27:15.089Z,43.0
2017-07-18T07:28:16.709Z,43.0
2017-07-18T07:29:18.599Z,42.3
2017-07-18T07:30:20.547Z,42.6
2017-07-18T07:31:22.977Z,42.8
2017-07-18T07:32:24.583Z,43.1
2017-07-18T07:33:26.183Z,42.6
2017-07-18T07:34:27.800Z,43.0
2017-07-18T07:35:29.438Z,42.9
2017-07-18T07:36:31.059Z,43.1
2017-07-18T07:37:33.054Z,41.6
2017-07-18T07:38:34.708Z,42.1
2017-07-18T07:39:36.308Z,41.9
2017-07-18T07:40:37.938Z,42.1
2017-07-18T07:41:39.555Z,41.6
2017-07-18T07:42:42.127Z,40.8
2017-07-18T07:43:44.374Z,40.3
2017-07-18T07:44:46.355Z,39.5
2017-07-18T07:45:49.435Z,38.5
2017-07-18T07:46:51.066Z,38.6
2017-07-18T07:47:52.685Z,34.4
2017-07-18T07:48:54.305Z,32.2
2017-07-18T07:49:55.935Z,30.2
2017-07-18T07:50:57.565Z,30.3
2017-07-18T07:51:59.189Z,32.1
2017-07-18T07:53:00.814Z,32.0
2017-07-18T07:54:02.440Z,27.0
2017-07-18T07:55:04.078Z,21.7
2017-07-18T07:56:05.694Z,18.6
2017-07-18T07:57:07.505Z,16.4
2017-07-18T07:58:11.122Z,13.9
2017-07-18T07:59:12.737Z,12.6
2017-07-18T08:00:14.354Z,11.0
2017-07-18T08:01:16.002Z,10.1
2017-07-18T08:02:17.615Z,9.2
2017-07-18T08:03:19.260Z,7.9
2017-07-18T08:04:20.881Z,6.5
2017-07-18T08:05:22.557Z,6.5
2017-07-18T08:06:24.161Z,5.5
2017-07-18T08:07:25.813Z,4.7
2017-07-18T08:08:29.007Z,3.9
2017-07-18T08:09:30.620Z,3.5
2017-07-18T08:10:34.131Z,2.7
2017-07-18T08:11:35.757Z,2.1
2017-07-18T08:12:37.393Z,1.6
2017-07-18T08:13:39.029Z,1.2
2017-07-18T08:14:40.680Z,1.3
2017-07-18T08:15:42.292Z,0.8
2017-07-18T08:16:43.934Z,0.7
2017-07-18T08:17:45.569Z,0.7
2017-07-18T08:18:47.214Z,0.5
2017-07-18T08:19:50.624Z,0.0
2017-07-18T08:20:52.246Z,0.0
2017-07-18T08:21:53.912Z,0.0
2017-07-18T08:22:55.530Z,0.0
2017-07-18T08:23:57.161Z,0.0
2017-07-18T08:24:58.804Z,0.0
2017-07-18T08:26:00.435Z,0.0
2017-07-18T08:27:02.095Z,0.0
2017-07-18T08:28:05.505Z,0.0
2017-07-18T08:29:07.138Z,0.0
2017-07-18T08:30:08.775Z,0.0
2017-07-18T08:31:10.415Z,0.0
2017-07-18T08:32:12.063Z,0.0
2017-07-18T08:33:13.710Z,0.0
2017-07-18T08:34:15.343Z,0.0
2017-07-18T08:35:16.985Z,0.0
2017-07-18T08:36:18.607Z,0.0
2017-07-18T08:37:20.268Z,0.0
2017-07-18T08:38:21.884Z,0.0
2017-07-18T08:39:23.535Z,0.0
2017-07-18T08:40:25.238Z,0.0
2017-07-18T08:41:27.143Z,0.0
2017-07-18T08:42:28.747Z,0.0
2017-07-18T08:43:30.399Z,0.0
2017-07-18T08:44:32.024Z,0.0
2017-07-18T08:45:33.671Z,0.0
2017-07-18T08:46:35.289Z,0.0
2017-07-18T08:47:36.939Z,0.0
2017-07-18T08:48:38.576Z,0.0
2017-07-18T08:49:40.218Z,0.0
2017-07-18T08:50:41.856Z,0.0
2017-07-18T08:51:43.706Z,0.0
2017-07-18T08:52:45.349Z,0.0
2017-07-18T08:53:46.986Z,0.0
2017-07-18T08:54:48.628Z,0.0
2017-07-18T08:55:50.249Z,0.0
2017-07-18T08:56:51.912Z,0.0
2017-07-18T08:57:53.877Z,0.0
2017-07-18T08:58:55.516Z,0.0
2017-07-18T08:59:57.156Z,0.0
2017-07-18T09:00:59.703Z,0.0
2017-07-18T09:02:03.331Z,0.0
2017-07-18T09:03:04.973Z,0.0
2017-07-18T09:04:06.608Z,0.0
2017-07-18T09:05:08.239Z,0.0
2017-07-18T09:06:09.878Z,0.0
2017-07-18T09:07:11.532Z,0.0
2017-07-18T09:08:14.279Z,0.0
2017-07-18T09:09:15.887Z,0.0
2017-07-18T09:10:17.527Z,0.0
2017-07-18T09:11:19.201Z,0.1
2017-07-18T09:12:20.836Z,0.3
2017-07-18T09:13:22.481Z,1.1
2017-07-18T09:14:24.117Z,0.1
2017-07-18T09:15:25.752Z,0.0
2017-07-18T09:16:27.398Z,0.0
2017-07-18T09:17:29.046Z,0.0
2017-07-18T09:18:30.673Z,0.0
2017-07-18T09:19:32.323Z,0.0
2017-07-18T09:20:33.963Z,0.0
2017-07-18T09:21:35.872Z,0.0
2017-07-18T09:22:37.501Z,0.0
2017-07-18T09:23:39.152Z,0.0
2017-07-18T09:24:40.773Z,0.0
2017-07-18T09:25:42.435Z,0.0
2017-07-18T09:26:44.064Z,0.0
2017-07-18T09:27:45.702Z,0.0
2017-07-18T09:28:47.964Z,0.0
2017-07-18T09:29:49.628Z,0.0
2017-07-18T09:30:51.242Z,0.0
2017-07-18T09:31:52.888Z,0.0
2017-07-18T09:32:54.515Z,0.0
2017-07-18T09:33:56.159Z,0.0
2017-07-18T09:34:57.799Z,0.0
2017-07-18T09:35:59.462Z,0.0
2017-07-18T09:37:01.086Z,0.0
2017-07-18T09:38:02.718Z,0.0
2017-07-18T09:39:04.363Z,0.0
2017-07-18T09:40:06.020Z,0.0
2017-07-18T09:41:07.636Z,0.0
2017-07-18T09:42:09.302Z,0.0
2017-07-18T09:43:10.929Z,0.0
2017-07-18T09:44:12.578Z,0.0
2017-07-18T09:45:14.214Z,0.0
2017-07-18T09:46:15.840Z,0.0
2017-07-18T09:47:17.487Z,0.0
2017-07-18T09:48:19.128Z,0.0
2017-07-18T09:49:20.762Z,0.0
2017-07-18T09:50:22.400Z,0.0
2017-07-18T09:51:24.037Z,0.1
2017-07-18T09:52:25.673Z,1.0
2017-07-18T09:53:27.312Z,1.7
2017-07-18T09:54:28.959Z,2.6
2017-07-18T09:55:30.571Z,3.5
2017-07-18T09:56:32.209Z,2.6
2017-07-18T09:57:33.865Z,1.1
2017-07-18T09:58:35.504Z,1.4
2017-07-18T09:59:37.126Z,1.8
2017-07-18T10:00:38.749Z,1.8
2017-07-18T10:01:40.402Z,1.5
2017-07-18T10:02:43.738Z,0.3
2017-07-18T10:03:45.352Z,0.4
2017-07-18T10:04:47.006Z,0.0
2017-07-18T10:05:48.630Z,0.0
2017-07-18T10:06:50.270Z,1.2
2017-07-18T10:07:51.897Z,2.5
2017-07-18T10:08:53.528Z,3.3
2017-07-18T10:09:55.177Z,3.8
2017-07-18T10:10:56.813Z,4.8
2017-07-18T10:11:58.646Z,5.5
2017-07-18T10:13:00.281Z,6.8
2017-07-18T10:14:01.923Z,6.3
2017-07-18T10:15:03.546Z,4.0
2017-07-18T10:16:05.202Z,2.6
2017-07-18T10:17:06.828Z,1.9
2017-07-18T10:18:08.460Z,1.2
2017-07-18T10:19:10.090Z,0.8
2017-07-18T10:20:11.730Z,0.3
2017-07-18T10:21:13.370Z,1.6
2017-07-18T10:22:14.993Z,2.7
2017-07-18T10:23:18.600Z,4.3
2017-07-18T10:24:20.225Z,5.4
2017-07-18T10:25:21.865Z,6.3
2017-07-18T10:26:23.511Z,7.0
2017-07-18T10:27:25.117Z,8.0
2017-07-18T10:28:26.753Z,5.6
2017-07-18T10:29:28.393Z,4.0
2017-07-18T10:30:30.053Z,2.3
2017-07-18T10:31:31.671Z,1.5
2017-07-18T10:32:33.298Z,1.0
2017-07-18T10:33:34.935Z,2.0
2017-07-18T10:34:36.557Z,3.9
2017-07-18T10:35:38.202Z,5.1
2017-07-18T10:36:39.816Z,5.7
2017-07-18T10:37:41.448Z,6.8
2017-07-18T10:38:43.111Z,6.0
2017-07-18T10:39:44.727Z,4.6
2017-07-18T10:40:46.358Z,3.1
2017-07-18T10:41:47.987Z,2.8
2017-07-18T10:42:49.630Z,1.6
2017-07-18T10:43:51.263Z,1.2
2017-07-18T10:44:52.892Z,1.5
2017-07-18T10:45:54.532Z,1.9
2017-07-18T10:46:56.163Z,2.0
2017-07-18T10:47:57.805Z,2.5
2017-07-18T10:48:59.423Z,3.3
2017-07-18T10:50:02.574Z,4.6
2017-07-18T10:51:04.997Z,5.2
2017-07-18T10:52:06.612Z,6.1
2017-07-18T10:53:08.258Z,6.8
2017-07-18T10:54:09.881Z,7.1
2017-07-18T10:55:11.509Z,6.2
2017-07-18T10:56:13.140Z,5.2
2017-07-18T10:57:14.770Z,4.6
2017-07-18T10:58:16.410Z,4.5
2017-07-18T10:59:18.070Z,4.6
2017-07-18T11:00:19.669Z,4.6
2017-07-18T11:01:22.352Z,6.1
2017-07-18T11:02:23.801Z,6.7
2017-07-18T11:03:25.428Z,7.4
2017-07-18T11:04:27.284Z,7.7
2017-07-18T11:05:28.899Z,8.5
2017-07-18T11:06:30.558Z,7.7
2017-07-18T11:07:32.178Z,6.8
2017-07-18T11:08:33.818Z,6.3
2017-07-18T11:09:35.834Z,5.1
2017-07-18T11:10:37.839Z,4.7
2017-07-18T11:11:39.469Z,4.4
2017-07-18T11:12:41.117Z,4.0
2017-07-18T11:13:42.723Z,4.6
2017-07-18T11:14:44.382Z,5.8
2017-07-18T11:15:46.007Z,5.9
2017-07-18T11:16:47.617Z,4.8
2017-07-18T11:17:49.259Z,4.8
2017-07-18T11:18:52.784Z,5.5
2017-07-18T11:19:54.419Z,4.7
2017-07-18T11:20:56.067Z,5.4
2017-07-18T11:21:57.701Z,5.7
2017-07-18T11:22:59.335Z,6.8
2017-07-18T11:24:00.935Z,7.9
2017-07-18T11:25:02.584Z,7.8
2017-07-18T11:26:04.229Z,6.6
2017-07-18T11:27:05.835Z,6.6
2017-07-18T11:28:07.464Z,7.0
2017-07-18T11:29:09.109Z,6.1
2017-07-18T11:30:10.736Z,6.4
2017-07-18T11:31:12.365Z,7.1
2017-07-18T11:32:14.001Z,8.1
2017-07-18T11:33:15.625Z,8.5
2017-07-18T11:34:17.269Z,8.6
2017-07-18T11:35:18.887Z,8.7
2017-07-18T11:36:20.529Z,9.4
2017-07-18T11:37:24.164Z,8.9
2017-07-18T11:38:25.805Z,9.5
2017-07-18T11:39:27.427Z,10.6
2017-07-18T11:40:29.057Z,11.1
2017-07-18T11:41:30.696Z,11.1
2017-07-18T11:42:32.524Z,11.5
2017-07-18T11:43:34.442Z,11.4
2017-07-18T11:44:36.049Z,10.9
2017-07-18T11:45:37.686Z,11.4
2017-07-18T11:46:39.334Z,10.3
2017-07-18T11:47:40.946Z,10.6
2017-07-18T11:48:42.595Z,9.7
2017-07-18T11:49:44.216Z,10.1
2017-07-18T11:50:45.863Z,9.7
2017-07-18T11:51:47.465Z,9.6
2017-07-18T11:52:49.112Z,9.6
2017-07-18T11:53:50.726Z,9.6
2017-07-18T11:54:52.348Z,8.6
2017-07-18T11:55:53.988Z,8.4
2017-07-18T11:56:55.624Z,9.5
2017-07-18T11:57:57.246Z,9.8
2017-07-18T11:58:58.891Z,9.6
2017-07-18T12:00:00.507Z,9.0
2017-07-18T12:01:02.148Z,9.2
2017-07-18T12:02:04.784Z,11.0
2017-07-18T12:03:06.702Z,11.4
2017-07-18T12:04:08.523Z,10.6
2017-07-18T12:05:10.152Z,11.0
2017-07-18T12:06:11.799Z,11.6
2017-07-18T12:07:13.424Z,11.3
2017-07-18T12:08:15.049Z,10.8
2017-07-18T12:09:18.653Z,11.4
2017-07-18T12:10:20.282Z,11.5
2017-07-18T12:11:22.254Z,11.3
2017-07-18T12:12:23.883Z,11.1
2017-07-18T12:13:25.505Z,11.4
2017-07-18T12:14:27.137Z,11.4
2017-07-18T12:15:28.774Z,11.5
2017-07-18T12:16:30.399Z,12.5
2017-07-18T12:17:32.025Z,12.6
2017-07-18T12:18:33.661Z,12.0
2017-07-18T12:19:35.275Z,11.7
2017-07-18T12:20:36.916Z,12.5
2017-07-18T12:21:38.565Z,12.4
2017-07-18T12:22:40.171Z,11.7
2017-07-18T12:23:41.828Z,11.7
2017-07-18T12:24:43.963Z,12.3
2017-07-18T12:25:45.592Z,12.3
2017-07-18T12:26:47.233Z,12.4
2017-07-18T12:27:48.874Z,12.8
2017-07-18T12:28:50.486Z,13.2
2017-07-18T12:29:52.121Z,11.7
2017-07-18T12:30:53.754Z,11.6
2017-07-18T12:31:55.607Z,13.0
2017-07-18T12:32:57.233Z,13.0
2017-07-18T12:33:58.861Z,13.4
2017-07-18T12:35:00.499Z,13.0
2017-07-18T12:36:02.127Z,13.0
2017-07-18T12:37:03.772Z,13.1
2017-07-18T12:38:05.397Z,12.8
2017-07-18T12:39:07.014Z,13.9
2017-07-18T12:40:09.305Z,14.0
2017-07-18T12:41:10.929Z,13.9
2017-07-18T12:42:12.564Z,14.3
2017-07-18T12:43:14.195Z,14.2
2017-07-18T12:44:15.824Z,14.5
2017-07-18T12:45:17.957Z,14.4
2017-07-18T12:46:19.609Z,14.0
2017-07-18T12:47:21.233Z,13.9
2017-07-18T12:48:22.852Z,14.3
2017-07-18T12:49:24.477Z,14.5
2017-07-18T12:50:26.107Z,14.3
2017-07-18T12:51:27.766Z,14.1
2017-07-18T12:52:29.400Z,15.5
2017-07-18T12:53:31.047Z,15.4
2017-07-18T12:54:32.683Z,15.4
2017-07-18T12:55:34.301Z,16.1
2017-07-18T12:56:36.122Z,15.8
2017-07-18T12:57:37.762Z,16.3
2017-07-18T12:58:39.419Z,16.7
2017-07-18T12:59:41.016Z,16.7
2017-07-18T13:00:42.671Z,17.1
2017-07-18T13:01:44.281Z,17.7
2017-07-18T13:02:45.910Z,17.5
2017-07-18T13:03:47.529Z,18.2
2017-07-18T13:04:49.163Z,18.0
2017-07-18T13:05:50.796Z,18.4
2017-07-18T13:06:52.442Z,18.5
2017-07-18T13:07:54.045Z,18.3
2017-07-18T13:08:55.679Z,18.7
2017-07-18T13:09:57.329Z,18.3
2017-07-18T13:10:58.942Z,18.5
2017-07-18T13:12:02.480Z,18.7
2017-07-18T13:13:04.094Z,18.7
2017-07-18T13:14:05.716Z,18.7
2017-07-18T13:15:07.557Z,18.2
2017-07-18T13:16:09.190Z,18.1
2017-07-18T13:17:10.806Z,18.2
2017-07-18T13:18:12.454Z,18.1
2017-07-18T13:19:14.059Z,18.3
2017-07-18T13:20:15.694Z,18.1
2017-07-18T13:21:17.315Z,18.5
2017-07-18T13:22:18.965Z,18.9
2017-07-18T13:23:20.586Z,18.3
2017-07-18T13:24:22.200Z,18.2
2017-07-18T13:25:23.853Z,18.5
2017-07-18T13:26:25.482Z,18.2
2017-07-18T13:27:27.112Z,18.0
2017-07-18T13:28:28.722Z,19.0
2017-07-18T13:29:30.348Z,19.4
2017-07-18T13:30:31.985Z,18.5
2017-07-18T13:31:33.610Z,17.3
2017-07-18T13:32:35.242Z,18.7
2017-07-18T13:33:36.872Z,18.9
2017-07-18T13:34:38.717Z,19.1
2017-07-18T13:35:40.343Z,18.5
2017-07-18T13:36:41.973Z,19.1
2017-07-18T13:37:44.782Z,19.2
2017-07-18T13:38:48.389Z,19.4
2017-07-18T13:39:50.268Z,19.1
2017-07-18T13:40:51.882Z,18.3
2017-07-18T13:41:53.523Z,18.8
2017-07-18T13:42:55.169Z,19.3
2017-07-18T13:43:56.772Z,19.2
2017-07-18T13:44:58.617Z,19.2
2017-07-18T13:46:02.228Z,18.2
2017-07-18T13:47:03.843Z,17.9
2017-07-18T13:48:05.467Z,17.9
2017-07-18T13:49:07.099Z,17.0
2017-07-18T13:50:08.728Z,16.9